sensor_id;sensor_type;location;lat;lon;timestamp;temperature;humidity
19365;DHT22;9818;48.382;10.850;2022-09-29T00:01:14;6.90;99.90
19365;DHT22;9818;48.382;10.850;2022-09-29T00:03:43;6.80;99.90
19365;DHT22;9818;48.382;10.850;2022-09-29T00:06:12;6.90;99.90
19365;DHT22;9818;48.382;10.850;2022-09-29T00:08:44;7.00;99.90
19365;DHT22;9818;48.382;10.850;2022-09-29T00:11:14;7.00;99.90
19365;DHT22;9818;48.382;10.850;2022-09-29T00:13:43;7.10;99.90
19365;DHT22;9818;48.382;10.850;2022-09-29T00:16:11;7.10;99.90
19365;DHT22;9818;48.382;10.850;2022-09-29T00:18:40;7.10;99.90
19365;DHT22;9818;48.382;10.850;2022-09-29T00:21:09;7.10;99.90
19365;DHT22;9818;48.382;10.850;2022-09-29T00:23:38;7.20;99.90
19365;DHT22;9818;48.382;10.850;2022-09-29T00:26:10;7.20;99.90
19365;DHT22;9818;48.382;10.850;2022-09-29T00:28:39;7.20;99.90
19365;DHT22;9818;48.382;10.850;2022-09-29T00:31:08;7.30;99.90
19365;DHT22;9818;48.382;10.850;2022-09-29T00:33:38;7.40;99.90
19365;DHT22;9818;48.382;10.850;2022-09-29T00:36:08;7.40;99.90
19365;DHT22;9818;48.382;10.850;2022-09-29T00:38:37;7.40;99.90
19365;DHT22;9818;48.382;10.850;2022-09-29T00:41:06;7.40;99.90
19365;DHT22;9818;48.382;10.850;2022-09-29T00:43:51;7.40;99.90
19365;DHT22;9818;48.382;10.850;2022-09-29T00:46:21;7.50;99.90
19365;DHT22;9818;48.382;10.850;2022-09-29T00:48:51;7.50;99.90
19365;DHT22;9818;48.382;10.850;2022-09-29T00:51:20;7.60;99.90
19365;DHT22;9818;48.382;10.850;2022-09-29T00:53:48;7.60;99.90
19365;DHT22;9818;48.382;10.850;2022-09-29T00:56:17;7.60;99.90
19365;DHT22;9818;48.382;10.850;2022-09-29T00:58:47;7.70;99.90
19365;DHT22;9818;48.382;10.850;2022-09-29T01:01:22;7.70;99.90
19365;DHT22;9818;48.382;10.850;2022-09-29T01:03:51;7.70;99.90
19365;DHT22;9818;48.382;10.850;2022-09-29T01:06:21;7.70;99.90
19365;DHT22;9818;48.382;10.850;2022-09-29T01:20:18;7.80;99.90
19365;DHT22;9818;48.382;10.850;2022-09-29T01:22:56;7.70;99.90
19365;DHT22;9818;48.382;10.850;2022-09-29T01:25:35;7.60;99.90
19365;DHT22;9818;48.382;10.850;2022-09-29T01:28:19;7.60;99.90
19365;DHT22;9818;48.382;10.850;2022-09-29T01:30:57;7.60;99.90
19365;DHT22;9818;48.382;10.850;2022-09-29T01:33:32;7.60;99.90
19365;DHT22;9818;48.382;10.850;2022-09-29T01:36:02;7.70;99.90
19365;DHT22;9818;48.382;10.850;2022-09-29T01:38:45;7.70;99.90
19365;DHT22;9818;48.382;10.850;2022-09-29T01:41:16;7.70;99.90
19365;DHT22;9818;48.382;10.850;2022-09-29T01:43:46;7.70;99.90
19365;DHT22;9818;48.382;10.850;2022-09-29T01:46:20;7.70;99.90
19365;DHT22;9818;48.382;10.850;2022-09-29T01:48:50;7.70;99.90
19365;DHT22;9818;48.382;10.850;2022-09-29T01:51:20;7.70;99.90
19365;DHT22;9818;48.382;10.850;2022-09-29T01:53:50;7.70;99.90
19365;DHT22;9818;48.382;10.850;2022-09-29T01:56:20;7.70;99.90
19365;DHT22;9818;48.382;10.850;2022-09-29T01:58:51;7.70;99.90
19365;DHT22;9818;48.382;10.850;2022-09-29T02:01:24;7.70;99.90
19365;DHT22;9818;48.382;10.850;2022-09-29T02:03:53;7.80;99.90
19365;DHT22;9818;48.382;10.850;2022-09-29T02:06:33;7.80;99.90
19365;DHT22;9818;48.382;10.850;2022-09-29T02:09:06;7.80;99.90
19365;DHT22;9818;48.382;10.850;2022-09-29T02:11:36;7.80;99.90
19365;DHT22;9818;48.382;10.850;2022-09-29T02:14:06;7.90;99.90
19365;DHT22;9818;48.382;10.850;2022-09-29T02:16:41;7.80;99.90
19365;DHT22;9818;48.382;10.850;2022-09-29T02:19:12;7.90;99.90
19365;DHT22;9818;48.382;10.850;2022-09-29T02:21:43;7.80;99.90
19365;DHT22;9818;48.382;10.850;2022-09-29T02:24:11;7.90;99.90
19365;DHT22;9818;48.382;10.850;2022-09-29T02:26:40;7.90;99.90
19365;DHT22;9818;48.382;10.850;2022-09-29T02:29:09;7.90;99.90
19365;DHT22;9818;48.382;10.850;2022-09-29T02:31:38;7.90;99.90
19365;DHT22;9818;48.382;10.850;2022-09-29T02:34:09;7.90;99.90
19365;DHT22;9818;48.382;10.850;2022-09-29T02:36:40;7.90;99.90
19365;DHT22;9818;48.382;10.850;2022-09-29T02:39:14;7.90;99.90
19365;DHT22;9818;48.382;10.850;2022-09-29T02:41:48;7.90;99.90
19365;DHT22;9818;48.382;10.850;2022-09-29T02:44:24;7.90;99.90
19365;DHT22;9818;48.382;10.850;2022-09-29T02:47:01;7.90;99.90
19365;DHT22;9818;48.382;10.850;2022-09-29T02:49:37;7.90;99.90
19365;DHT22;9818;48.382;10.850;2022-09-29T02:52:10;7.90;99.90
19365;DHT22;9818;48.382;10.850;2022-09-29T02:54:46;7.90;99.90
19365;DHT22;9818;48.382;10.850;2022-09-29T02:57:18;8.00;99.90
19365;DHT22;9818;48.382;10.850;2022-09-29T02:59:50;8.00;99.90
19365;DHT22;9818;48.382;10.850;2022-09-29T03:02:22;7.90;99.90
19365;DHT22;9818;48.382;10.850;2022-09-29T03:04:54;7.80;99.90
19365;DHT22;9818;48.382;10.850;2022-09-29T03:07:22;7.80;99.90
19365;DHT22;9818;48.382;10.850;2022-09-29T03:09:51;7.80;99.90
19365;DHT22;9818;48.382;10.850;2022-09-29T03:12:19;7.70;99.90
19365;DHT22;9818;48.382;10.850;2022-09-29T03:14:48;7.60;99.90
19365;DHT22;9818;48.382;10.850;2022-09-29T03:17:16;7.60;99.90
19365;DHT22;9818;48.382;10.850;2022-09-29T03:19:45;7.50;99.90
19365;DHT22;9818;48.382;10.850;2022-09-29T03:22:16;7.40;99.90
19365;DHT22;9818;48.382;10.850;2022-09-29T03:24:44;7.40;99.90
19365;DHT22;9818;48.382;10.850;2022-09-29T03:27:13;7.30;99.90
19365;DHT22;9818;48.382;10.850;2022-09-29T03:29:41;7.30;99.90
19365;DHT22;9818;48.382;10.850;2022-09-29T03:32:10;7.30;99.90
19365;DHT22;9818;48.382;10.850;2022-09-29T03:34:38;7.20;99.90
19365;DHT22;9818;48.382;10.850;2022-09-29T03:37:07;7.20;99.90
19365;DHT22;9818;48.382;10.850;2022-09-29T03:39:38;7.20;99.90
19365;DHT22;9818;48.382;10.850;2022-09-29T03:42:06;7.10;99.90
19365;DHT22;9818;48.382;10.850;2022-09-29T03:44:34;7.10;99.90
19365;DHT22;9818;48.382;10.850;2022-09-29T03:47:03;7.10;99.90
19365;DHT22;9818;48.382;10.850;2022-09-29T03:49:31;7.10;99.90
19365;DHT22;9818;48.382;10.850;2022-09-29T03:52:00;7.20;99.90
19365;DHT22;9818;48.382;10.850;2022-09-29T03:54:29;7.20;99.90
19365;DHT22;9818;48.382;10.850;2022-09-29T03:57:00;7.20;99.90
19365;DHT22;9818;48.382;10.850;2022-09-29T03:59:28;7.30;99.90
19365;DHT22;9818;48.382;10.850;2022-09-29T04:01:57;7.20;99.90
19365;DHT22;9818;48.382;10.850;2022-09-29T04:04:25;7.20;99.90
19365;DHT22;9818;48.382;10.850;2022-09-29T04:06:53;7.20;99.90
19365;DHT22;9818;48.382;10.850;2022-09-29T04:09:22;7.30;99.90
19365;DHT22;9818;48.382;10.850;2022-09-29T04:11:50;7.20;99.90
19365;DHT22;9818;48.382;10.850;2022-09-29T04:14:21;7.20;99.90
19365;DHT22;9818;48.382;10.850;2022-09-29T04:16:50;7.20;99.90
19365;DHT22;9818;48.382;10.850;2022-09-29T04:19:18;7.30;99.90
19365;DHT22;9818;48.382;10.850;2022-09-29T04:21:47;7.30;99.90
19365;DHT22;9818;48.382;10.850;2022-09-29T04:24:15;7.30;99.90
19365;DHT22;9818;48.382;10.850;2022-09-29T04:26:44;7.30;99.90
19365;DHT22;9818;48.382;10.850;2022-09-29T04:29:12;7.30;99.90
19365;DHT22;9818;48.382;10.850;2022-09-29T04:31:43;7.30;99.90
19365;DHT22;9818;48.382;10.850;2022-09-29T04:34:11;7.30;99.90
19365;DHT22;9818;48.382;10.850;2022-09-29T04:36:40;7.30;99.90
19365;DHT22;9818;48.382;10.850;2022-09-29T04:39:08;7.30;99.90
19365;DHT22;9818;48.382;10.850;2022-09-29T04:41:37;7.40;99.90
19365;DHT22;9818;48.382;10.850;2022-09-29T04:44:06;7.40;99.90
19365;DHT22;9818;48.382;10.850;2022-09-29T04:46:34;7.40;99.90
19365;DHT22;9818;48.382;10.850;2022-09-29T04:49:05;7.50;99.90
19365;DHT22;9818;48.382;10.850;2022-09-29T04:51:34;7.50;99.90
19365;DHT22;9818;48.382;10.850;2022-09-29T04:54:02;7.50;99.90
19365;DHT22;9818;48.382;10.850;2022-09-29T04:56:31;7.60;99.90
19365;DHT22;9818;48.382;10.850;2022-09-29T04:58:59;7.50;99.90
19365;DHT22;9818;48.382;10.850;2022-09-29T05:01:28;7.60;99.90
19365;DHT22;9818;48.382;10.850;2022-09-29T05:03:57;7.60;99.90
19365;DHT22;9818;48.382;10.850;2022-09-29T05:06:28;7.60;99.90
19365;DHT22;9818;48.382;10.850;2022-09-29T05:08:56;7.60;99.90
19365;DHT22;9818;48.382;10.850;2022-09-29T05:11:25;7.70;99.90
19365;DHT22;9818;48.382;10.850;2022-09-29T05:13:53;7.70;99.90
19365;DHT22;9818;48.382;10.850;2022-09-29T05:16:22;7.70;99.90
19365;DHT22;9818;48.382;10.850;2022-09-29T05:18:50;7.70;99.90
19365;DHT22;9818;48.382;10.850;2022-09-29T05:21:19;7.70;99.90
19365;DHT22;9818;48.382;10.850;2022-09-29T05:23:50;7.70;99.90
19365;DHT22;9818;48.382;10.850;2022-09-29T05:26:18;7.80;99.90
19365;DHT22;9818;48.382;10.850;2022-09-29T05:28:47;7.80;99.90
19365;DHT22;9818;48.382;10.850;2022-09-29T05:31:15;7.90;99.90
19365;DHT22;9818;48.382;10.850;2022-09-29T05:33:44;8.00;99.90
19365;DHT22;9818;48.382;10.850;2022-09-29T05:36:12;7.90;99.90
19365;DHT22;9818;48.382;10.850;2022-09-29T05:38:41;8.10;99.90
19365;DHT22;9818;48.382;10.850;2022-09-29T05:41:12;8.20;99.90
19365;DHT22;9818;48.382;10.850;2022-09-29T05:43:46;8.40;99.90
19365;DHT22;9818;48.382;10.850;2022-09-29T05:46:15;8.40;99.90
19365;DHT22;9818;48.382;10.850;2022-09-29T05:48:44;8.50;99.90
19365;DHT22;9818;48.382;10.850;2022-09-29T05:51:14;8.50;99.90
19365;DHT22;9818;48.382;10.850;2022-09-29T05:53:42;8.60;99.90
19365;DHT22;9818;48.382;10.850;2022-09-29T05:56:14;8.80;99.90
19365;DHT22;9818;48.382;10.850;2022-09-29T05:58:43;8.80;99.90
19365;DHT22;9818;48.382;10.850;2022-09-29T06:01:12;8.90;99.90
19365;DHT22;9818;48.382;10.850;2022-09-29T06:03:41;8.80;99.90
19365;DHT22;9818;48.382;10.850;2022-09-29T06:06:10;8.90;99.90
19365;DHT22;9818;48.382;10.850;2022-09-29T06:08:39;9.10;99.90
19365;DHT22;9818;48.382;10.850;2022-09-29T06:11:08;9.20;99.90
19365;DHT22;9818;48.382;10.850;2022-09-29T06:13:40;9.50;99.90
19365;DHT22;9818;48.382;10.850;2022-09-29T06:16:09;9.50;99.90
19365;DHT22;9818;48.382;10.850;2022-09-29T06:18:38;9.60;99.90
19365;DHT22;9818;48.382;10.850;2022-09-29T06:21:08;10.00;99.90
19365;DHT22;9818;48.382;10.850;2022-09-29T06:23:37;10.20;99.90
19365;DHT22;9818;48.382;10.850;2022-09-29T06:26:06;10.50;99.90
19365;DHT22;9818;48.382;10.850;2022-09-29T06:28:35;10.50;99.90
19365;DHT22;9818;48.382;10.850;2022-09-29T06:31:07;10.60;99.90
19365;DHT22;9818;48.382;10.850;2022-09-29T06:33:36;10.80;99.90
19365;DHT22;9818;48.382;10.850;2022-09-29T06:36:06;11.00;99.90
19365;DHT22;9818;48.382;10.850;2022-09-29T06:38:48;11.20;99.90
19365;DHT22;9818;48.382;10.850;2022-09-29T06:41:16;11.10;99.90
19365;DHT22;9818;48.382;10.850;2022-09-29T06:43:45;10.90;99.90
19365;DHT22;9818;48.382;10.850;2022-09-29T06:46:16;10.80;99.90
19365;DHT22;9818;48.382;10.850;2022-09-29T06:48:44;10.90;99.90
19365;DHT22;9818;48.382;10.850;2022-09-29T06:51:13;11.10;99.90
19365;DHT22;9818;48.382;10.850;2022-09-29T06:53:41;11.10;99.90
19365;DHT22;9818;48.382;10.850;2022-09-29T06:56:10;11.10;99.90
19365;DHT22;9818;48.382;10.850;2022-09-29T06:58:39;11.00;99.90
19365;DHT22;9818;48.382;10.850;2022-09-29T07:01:08;11.00;99.90
19365;DHT22;9818;48.382;10.850;2022-09-29T07:03:39;11.40;99.90
19365;DHT22;9818;48.382;10.850;2022-09-29T07:06:09;11.70;99.90
19365;DHT22;9818;48.382;10.850;2022-09-29T07:08:38;11.80;99.90
19365;DHT22;9818;48.382;10.850;2022-09-29T07:11:06;11.70;99.90
19365;DHT22;9818;48.382;10.850;2022-09-29T07:13:35;11.80;99.90
19365;DHT22;9818;48.382;10.850;2022-09-29T07:16:04;11.80;99.90
19365;DHT22;9818;48.382;10.850;2022-09-29T07:18:34;12.00;99.90
19365;DHT22;9818;48.382;10.850;2022-09-29T07:21:07;12.30;99.90
19365;DHT22;9818;48.382;10.850;2022-09-29T07:23:38;12.00;99.90
19365;DHT22;9818;48.382;10.850;2022-09-29T07:26:07;11.80;99.90
19365;DHT22;9818;48.382;10.850;2022-09-29T07:28:36;11.60;99.90
19365;DHT22;9818;48.382;10.850;2022-09-29T07:31:07;11.70;99.90
19365;DHT22;9818;48.382;10.850;2022-09-29T07:33:36;11.00;99.90
19365;DHT22;9818;48.382;10.850;2022-09-29T07:36:07;10.90;99.90
19365;DHT22;9818;48.382;10.850;2022-09-29T07:38:36;11.40;99.90
19365;DHT22;9818;48.382;10.850;2022-09-29T07:41:07;11.60;99.90
19365;DHT22;9818;48.382;10.850;2022-09-29T07:43:36;11.50;99.90
19365;DHT22;9818;48.382;10.850;2022-09-29T07:46:05;11.20;99.90
19365;DHT22;9818;48.382;10.850;2022-09-29T07:48:35;11.10;99.90
19365;DHT22;9818;48.382;10.850;2022-09-29T07:51:09;10.80;99.90
19365;DHT22;9818;48.382;10.850;2022-09-29T07:53:38;10.70;99.90
19365;DHT22;9818;48.382;10.850;2022-09-29T07:56:09;10.60;99.90
19365;DHT22;9818;48.382;10.850;2022-09-29T07:58:38;10.50;99.90
19365;DHT22;9818;48.382;10.850;2022-09-29T08:01:09;10.80;99.90
19365;DHT22;9818;48.382;10.850;2022-09-29T08:03:39;10.60;99.90
19365;DHT22;9818;48.382;10.850;2022-09-29T08:06:11;10.80;99.90
19365;DHT22;9818;48.382;10.850;2022-09-29T08:08:40;10.90;99.90
19365;DHT22;9818;48.382;10.850;2022-09-29T08:11:10;10.90;99.90
19365;DHT22;9818;48.382;10.850;2022-09-29T08:13:39;10.60;99.90
19365;DHT22;9818;48.382;10.850;2022-09-29T08:16:11;10.50;99.90
19365;DHT22;9818;48.382;10.850;2022-09-29T08:18:40;9.90;99.90
19365;DHT22;9818;48.382;10.850;2022-09-29T08:21:12;10.00;99.90
19365;DHT22;9818;48.382;10.850;2022-09-29T08:23:42;10.20;99.90
19365;DHT22;9818;48.382;10.850;2022-09-29T08:26:13;10.40;99.90
19365;DHT22;9818;48.382;10.850;2022-09-29T08:28:42;10.60;99.90
19365;DHT22;9818;48.382;10.850;2022-09-29T08:31:13;10.60;99.90
19365;DHT22;9818;48.382;10.850;2022-09-29T08:33:42;10.40;99.90
19365;DHT22;9818;48.382;10.850;2022-09-29T08:36:14;10.10;99.90
19365;DHT22;9818;48.382;10.850;2022-09-29T08:38:44;10.40;99.90
19365;DHT22;9818;48.382;10.850;2022-09-29T08:41:24;10.20;99.90
19365;DHT22;9818;48.382;10.850;2022-09-29T08:44:00;10.40;99.90
19365;DHT22;9818;48.382;10.850;2022-09-29T08:46:35;10.50;99.90
19365;DHT22;9818;48.382;10.850;2022-09-29T08:49:10;10.50;99.90
19365;DHT22;9818;48.382;10.850;2022-09-29T08:51:47;10.70;99.90
19365;DHT22;9818;48.382;10.850;2022-09-29T08:54:25;10.90;99.90
19365;DHT22;9818;48.382;10.850;2022-09-29T08:56:55;11.20;99.90
19365;DHT22;9818;48.382;10.850;2022-09-29T08:59:25;11.50;99.90
19365;DHT22;9818;48.382;10.850;2022-09-29T09:02:12;11.30;99.90
19365;DHT22;9818;48.382;10.850;2022-09-29T09:07:30;11.70;99.90
19365;DHT22;9818;48.382;10.850;2022-09-29T09:10:07;11.50;99.90
19365;DHT22;9818;48.382;10.850;2022-09-29T09:12:53;11.00;99.90
19365;DHT22;9818;48.382;10.850;2022-09-29T09:15:35;11.70;99.90
19365;DHT22;9818;48.382;10.850;2022-09-29T09:18:15;11.30;99.90
19365;DHT22;9818;48.382;10.850;2022-09-29T09:20:48;11.20;99.90
19365;DHT22;9818;48.382;10.850;2022-09-29T09:23:23;11.70;99.90
19365;DHT22;9818;48.382;10.850;2022-09-29T09:25:54;12.60;99.90
19365;DHT22;9818;48.382;10.850;2022-09-29T09:28:27;13.40;99.90
19365;DHT22;9818;48.382;10.850;2022-09-29T09:31:02;12.90;99.90
19365;DHT22;9818;48.382;10.850;2022-09-29T09:33:36;12.70;99.90
19365;DHT22;9818;48.382;10.850;2022-09-29T09:36:10;12.60;99.90
19365;DHT22;9818;48.382;10.850;2022-09-29T09:38:50;13.50;99.90
19365;DHT22;9818;48.382;10.850;2022-09-29T09:41:23;13.40;99.90
19365;DHT22;9818;48.382;10.850;2022-09-29T09:43:56;12.70;99.90
19365;DHT22;9818;48.382;10.850;2022-09-29T09:46:29;13.40;99.90
19365;DHT22;9818;48.382;10.850;2022-09-29T09:49:02;12.30;99.90
19365;DHT22;9818;48.382;10.850;2022-09-29T09:51:40;12.50;99.90
19365;DHT22;9818;48.382;10.850;2022-09-29T09:54:15;12.90;99.90
19365;DHT22;9818;48.382;10.850;2022-09-29T10:00:02;14.10;99.90
19365;DHT22;9818;48.382;10.850;2022-09-29T10:02:32;13.30;99.90
19365;DHT22;9818;48.382;10.850;2022-09-29T10:05:02;14.00;99.90
19365;DHT22;9818;48.382;10.850;2022-09-29T10:07:30;14.10;99.90
19365;DHT22;9818;48.382;10.850;2022-09-29T10:10:03;13.40;99.90
19365;DHT22;9818;48.382;10.850;2022-09-29T10:12:35;13.50;99.90
19365;DHT22;9818;48.382;10.850;2022-09-29T10:15:14;13.20;99.90
19365;DHT22;9818;48.382;10.850;2022-09-29T10:17:49;13.00;99.90
19365;DHT22;9818;48.382;10.850;2022-09-29T10:20:31;13.50;99.90
19365;DHT22;9818;48.382;10.850;2022-09-29T10:23:28;13.70;99.90
19365;DHT22;9818;48.382;10.850;2022-09-29T10:26:04;14.00;99.90
19365;DHT22;9818;48.382;10.850;2022-09-29T10:28:40;14.30;99.90
19365;DHT22;9818;48.382;10.850;2022-09-29T10:31:20;14.50;99.90
19365;DHT22;9818;48.382;10.850;2022-09-29T10:33:53;14.30;99.90
19365;DHT22;9818;48.382;10.850;2022-09-29T10:36:24;14.10;99.90
19365;DHT22;9818;48.382;10.850;2022-09-29T10:38:53;14.10;99.90
19365;DHT22;9818;48.382;10.850;2022-09-29T10:41:26;13.80;99.90
19365;DHT22;9818;48.382;10.850;2022-09-29T10:43:55;14.10;99.90
19365;DHT22;9818;48.382;10.850;2022-09-29T10:46:45;13.90;99.90
19365;DHT22;9818;48.382;10.850;2022-09-29T10:49:16;13.40;99.90
19365;DHT22;9818;48.382;10.850;2022-09-29T10:51:57;13.20;99.90
19365;DHT22;9818;48.382;10.850;2022-09-29T10:54:29;13.10;99.90
19365;DHT22;9818;48.382;10.850;2022-09-29T10:57:09;12.70;99.90
19365;DHT22;9818;48.382;10.850;2022-09-29T10:59:44;12.50;99.90
19365;DHT22;9818;48.382;10.850;2022-09-29T11:02:15;12.30;99.90
19365;DHT22;9818;48.382;10.850;2022-09-29T11:04:45;12.70;99.90
19365;DHT22;9818;48.382;10.850;2022-09-29T11:07:13;12.70;99.90
19365;DHT22;9818;48.382;10.850;2022-09-29T11:09:42;12.80;99.90
19365;DHT22;9818;48.382;10.850;2022-09-29T11:14:58;13.00;99.90
19365;DHT22;9818;48.382;10.850;2022-09-29T11:17:27;13.10;99.90
19365;DHT22;9818;48.382;10.850;2022-09-29T11:19:57;12.90;99.90
19365;DHT22;9818;48.382;10.850;2022-09-29T11:22:39;12.80;99.90
19365;DHT22;9818;48.382;10.850;2022-09-29T11:27:58;12.80;99.90
19365;DHT22;9818;48.382;10.850;2022-09-29T11:30:35;12.80;99.90
19365;DHT22;9818;48.382;10.850;2022-09-29T11:33:09;12.80;99.90
19365;DHT22;9818;48.382;10.850;2022-09-29T11:35:43;12.60;99.90
19365;DHT22;9818;48.382;10.850;2022-09-29T11:38:26;12.20;99.90
19365;DHT22;9818;48.382;10.850;2022-09-29T11:41:01;11.80;99.90
19365;DHT22;9818;48.382;10.850;2022-09-29T11:43:40;11.50;99.90
19365;DHT22;9818;48.382;10.850;2022-09-29T11:46:17;11.20;99.90
19365;DHT22;9818;48.382;10.850;2022-09-29T11:48:54;11.20;99.90
19365;DHT22;9818;48.382;10.850;2022-09-29T11:51:29;11.40;99.90
19365;DHT22;9818;48.382;10.850;2022-09-29T11:54:14;11.60;99.90
19365;DHT22;9818;48.382;10.850;2022-09-29T11:56:46;11.40;99.90
19365;DHT22;9818;48.382;10.850;2022-09-29T11:59:30;11.70;99.90
19365;DHT22;9818;48.382;10.850;2022-09-29T12:02:07;11.80;99.90
19365;DHT22;9818;48.382;10.850;2022-09-29T12:04:42;11.70;99.90
19365;DHT22;9818;48.382;10.850;2022-09-29T12:07:20;12.00;99.90
19365;DHT22;9818;48.382;10.850;2022-09-29T12:10:13;12.00;99.90
19365;DHT22;9818;48.382;10.850;2022-09-29T12:12:45;11.90;99.90
19365;DHT22;9818;48.382;10.850;2022-09-29T12:15:25;12.00;99.90
19365;DHT22;9818;48.382;10.850;2022-09-29T12:17:59;12.00;99.90
19365;DHT22;9818;48.382;10.850;2022-09-29T12:20:30;12.10;99.90
19365;DHT22;9818;48.382;10.850;2022-09-29T12:23:00;12.10;99.90
19365;DHT22;9818;48.382;10.850;2022-09-29T12:25:31;12.00;99.90
19365;DHT22;9818;48.382;10.850;2022-09-29T12:28:01;11.90;99.90
19365;DHT22;9818;48.382;10.850;2022-09-29T12:30:32;12.20;99.90
19365;DHT22;9818;48.382;10.850;2022-09-29T12:33:11;12.40;99.90
19365;DHT22;9818;48.382;10.850;2022-09-29T12:35:41;12.40;99.90
19365;DHT22;9818;48.382;10.850;2022-09-29T12:38:14;12.40;99.90
19365;DHT22;9818;48.382;10.850;2022-09-29T12:40:45;12.40;99.90
19365;DHT22;9818;48.382;10.850;2022-09-29T12:43:16;12.10;99.90
19365;DHT22;9818;48.382;10.850;2022-09-29T12:45:50;12.10;99.90
19365;DHT22;9818;48.382;10.850;2022-09-29T12:48:31;12.00;99.90
19365;DHT22;9818;48.382;10.850;2022-09-29T12:51:02;11.90;99.90
19365;DHT22;9818;48.382;10.850;2022-09-29T12:53:36;12.00;99.90
19365;DHT22;9818;48.382;10.850;2022-09-29T12:56:08;12.00;99.90
19365;DHT22;9818;48.382;10.850;2022-09-29T12:58:38;12.10;99.90
19365;DHT22;9818;48.382;10.850;2022-09-29T13:01:14;12.40;99.90
19365;DHT22;9818;48.382;10.850;2022-09-29T13:06:45;12.30;99.90
19365;DHT22;9818;48.382;10.850;2022-09-29T13:09:35;12.40;99.90
19365;DHT22;9818;48.382;10.850;2022-09-29T13:12:21;12.20;99.90
19365;DHT22;9818;48.382;10.850;2022-09-29T13:14:57;12.20;99.90
19365;DHT22;9818;48.382;10.850;2022-09-29T13:17:35;12.20;99.90
19365;DHT22;9818;48.382;10.850;2022-09-29T13:20:23;12.10;99.90
19365;DHT22;9818;48.382;10.850;2022-09-29T13:23:04;12.10;99.90
19365;DHT22;9818;48.382;10.850;2022-09-29T13:25:40;12.10;99.90
19365;DHT22;9818;48.382;10.850;2022-09-29T13:28:19;12.00;99.90
19365;DHT22;9818;48.382;10.850;2022-09-29T13:30:49;12.10;99.90
19365;DHT22;9818;48.382;10.850;2022-09-29T13:33:18;12.20;99.90
19365;DHT22;9818;48.382;10.850;2022-09-29T13:35:48;12.40;99.90
19365;DHT22;9818;48.382;10.850;2022-09-29T13:38:20;12.50;99.90
19365;DHT22;9818;48.382;10.850;2022-09-29T13:43:37;12.30;99.90
19365;DHT22;9818;48.382;10.850;2022-09-29T13:48:50;12.20;99.90
19365;DHT22;9818;48.382;10.850;2022-09-29T13:51:25;12.30;99.90
19365;DHT22;9818;48.382;10.850;2022-09-29T13:56:57;12.30;99.90
19365;DHT22;9818;48.382;10.850;2022-09-29T13:59:26;12.20;99.90
19365;DHT22;9818;48.382;10.850;2022-09-29T14:01:56;12.30;99.90
19365;DHT22;9818;48.382;10.850;2022-09-29T14:07:12;12.00;99.90
19365;DHT22;9818;48.382;10.850;2022-09-29T14:09:42;12.10;99.90
19365;DHT22;9818;48.382;10.850;2022-09-29T14:12:19;12.10;99.90
19365;DHT22;9818;48.382;10.850;2022-09-29T14:14:50;12.20;99.90
19365;DHT22;9818;48.382;10.850;2022-09-29T14:17:20;12.10;99.90
19365;DHT22;9818;48.382;10.850;2022-09-29T14:19:51;12.10;99.90
19365;DHT22;9818;48.382;10.850;2022-09-29T14:28:00;12.10;99.90
19365;DHT22;9818;48.382;10.850;2022-09-29T14:30:38;11.90;99.90
19365;DHT22;9818;48.382;10.850;2022-09-29T14:33:09;12.00;99.90
19365;DHT22;9818;48.382;10.850;2022-09-29T14:35:39;12.10;99.90
19365;DHT22;9818;48.382;10.850;2022-09-29T14:38:08;12.20;99.90
19365;DHT22;9818;48.382;10.850;2022-09-29T14:40:51;12.10;99.90
19365;DHT22;9818;48.382;10.850;2022-09-29T14:43:25;12.10;99.90
19365;DHT22;9818;48.382;10.850;2022-09-29T14:49:02;12.20;99.90
19365;DHT22;9818;48.382;10.850;2022-09-29T14:51:45;12.00;99.90
19365;DHT22;9818;48.382;10.850;2022-09-29T14:54:30;12.10;99.90
19365;DHT22;9818;48.382;10.850;2022-09-29T14:57:11;12.20;99.90
19365;DHT22;9818;48.382;10.850;2022-09-29T14:59:51;11.90;99.90
19365;DHT22;9818;48.382;10.850;2022-09-29T15:02:21;11.80;99.90
19365;DHT22;9818;48.382;10.850;2022-09-29T15:04:51;11.80;99.90
19365;DHT22;9818;48.382;10.850;2022-09-29T15:07:21;11.50;99.90
19365;DHT22;9818;48.382;10.850;2022-09-29T15:09:51;11.60;99.90
19365;DHT22;9818;48.382;10.850;2022-09-29T15:12:20;11.50;99.90
19365;DHT22;9818;48.382;10.850;2022-09-29T15:14:53;11.50;99.90
19365;DHT22;9818;48.382;10.850;2022-09-29T15:17:28;11.50;99.90
19365;DHT22;9818;48.382;10.850;2022-09-29T15:19:59;11.40;99.90
19365;DHT22;9818;48.382;10.850;2022-09-29T15:22:40;11.50;99.90
19365;DHT22;9818;48.382;10.850;2022-09-29T15:25:20;11.50;99.90
19365;DHT22;9818;48.382;10.850;2022-09-29T15:27:54;11.40;99.90
19365;DHT22;9818;48.382;10.850;2022-09-29T15:30:26;11.30;99.90
19365;DHT22;9818;48.382;10.850;2022-09-29T15:33:02;11.20;99.90
19365;DHT22;9818;48.382;10.850;2022-09-29T15:35:36;11.10;99.90
19365;DHT22;9818;48.382;10.850;2022-09-29T15:38:16;11.10;99.90
19365;DHT22;9818;48.382;10.850;2022-09-29T15:40:48;11.10;99.90
19365;DHT22;9818;48.382;10.850;2022-09-29T15:43:20;11.10;99.90
19365;DHT22;9818;48.382;10.850;2022-09-29T15:45:55;11.10;99.90
19365;DHT22;9818;48.382;10.850;2022-09-29T15:48:27;11.20;99.90
19365;DHT22;9818;48.382;10.850;2022-09-29T15:50:56;11.10;99.90
19365;DHT22;9818;48.382;10.850;2022-09-29T15:53:26;11.10;99.90
19365;DHT22;9818;48.382;10.850;2022-09-29T15:55:55;11.00;99.90
19365;DHT22;9818;48.382;10.850;2022-09-29T15:58:34;11.00;99.90
19365;DHT22;9818;48.382;10.850;2022-09-29T16:01:06;11.00;99.90
19365;DHT22;9818;48.382;10.850;2022-09-29T16:03:40;10.90;99.90
19365;DHT22;9818;48.382;10.850;2022-09-29T16:06:16;10.90;99.90
19365;DHT22;9818;48.382;10.850;2022-09-29T16:08:47;10.90;99.90
19365;DHT22;9818;48.382;10.850;2022-09-29T16:11:20;10.80;99.90
19365;DHT22;9818;48.382;10.850;2022-09-29T16:13:51;10.80;99.90
19365;DHT22;9818;48.382;10.850;2022-09-29T16:16:28;10.90;99.90
19365;DHT22;9818;48.382;10.850;2022-09-29T16:19:00;10.90;99.90
19365;DHT22;9818;48.382;10.850;2022-09-29T16:21:33;10.90;99.90
19365;DHT22;9818;48.382;10.850;2022-09-29T16:24:04;10.90;99.90
19365;DHT22;9818;48.382;10.850;2022-09-29T16:26:33;10.90;99.90
19365;DHT22;9818;48.382;10.850;2022-09-29T16:29:11;11.00;99.90
19365;DHT22;9818;48.382;10.850;2022-09-29T16:31:52;11.00;99.90
19365;DHT22;9818;48.382;10.850;2022-09-29T16:34:27;10.90;99.90
19365;DHT22;9818;48.382;10.850;2022-09-29T16:36:56;11.00;99.90
19365;DHT22;9818;48.382;10.850;2022-09-29T16:39:26;11.10;99.90
19365;DHT22;9818;48.382;10.850;2022-09-29T16:41:57;11.10;99.90
19365;DHT22;9818;48.382;10.850;2022-09-29T16:44:28;11.10;99.90
19365;DHT22;9818;48.382;10.850;2022-09-29T16:47:01;11.10;99.90
19365;DHT22;9818;48.382;10.850;2022-09-29T16:49:32;11.10;99.90
19365;DHT22;9818;48.382;10.850;2022-09-29T16:52:02;11.10;99.90
19365;DHT22;9818;48.382;10.850;2022-09-29T16:54:39;11.00;99.90